Time;durP1;ratioP1;P1;durP2;ratioP2;P2;SDS_P1;SDS_P2;PMS_P1;PMS_P2;Temp;Humidity;BMP_temperature;BMP_pressure;BME280_temperature;BME280_humidity;BME280_pressure;Samples;Min_cycle;Max_cycle;Signal;HPM_P1;HPM_P2
2022/02/09 00:02:26;;;;;;;20.00;19.20;;;20.80;56.10;;;;;;5091655;28;20482;-46
2022/02/09 00:05:07;;;;;;;20.07;19.27;;;20.70;56.20;;;;;;5098585;22;20475;-47
2022/02/09 00:07:40;;;;;;;20.03;19.23;;;20.70;56.40;;;;;;5068089;28;20440;-47
2022/02/09 00:10:07;;;;;;;20.67;19.87;;;20.60;56.40;;;;;;5091930;28;20546;-50
2022/02/09 00:12:40;;;;;;;20.57;19.73;;;20.60;56.60;;;;;;5078110;28;20446;-48
2022/02/09 00:15:20;;;;;;;20.43;19.60;;;20.50;56.80;;;;;;5071788;28;20467;-50
2022/02/09 00:17:54;;;;;;;20.03;19.23;;;20.40;56.90;;;;;;5071356;28;20475;-46
2022/02/09 00:23:42;;;;;;;20.20;19.40;;;20.40;57.40;;;;;;5071554;28;20470;-50
2022/02/09 00:34:38;;;;;;;20.53;19.63;;;20.10;58.20;;;;;;5068008;28;20484;-49
2022/02/09 00:37:23;;;;;;;20.30;19.50;;;20.00;58.40;;;;;;5071697;28;20666;-49
2022/02/09 01:41:47;;;;;;;20.10;19.30;;;19.20;63.40;;;;;;5071926;28;20443;-49
2022/02/09 01:57:33;;;;;;;20.50;19.70;;;19.00;64.20;;;;;;5074483;28;20431;-50
2022/02/09 02:00:01;;;;;;;20.33;19.53;;;19.00;64.30;;;;;;5074332;28;20443;-53
2022/02/09 02:02:29;;;;;;;19.87;19.07;;;19.00;64.50;;;;;;5073707;28;20479;-51
2022/02/09 02:04:56;;;;;;;20.10;19.20;;;19.00;64.60;;;;;;5074139;28;20473;-47
2022/02/09 02:07:31;;;;;;;20.20;19.40;;;18.90;64.50;;;;;;5073995;28;20450;-49
2022/02/09 02:10:04;;;;;;;20.50;19.70;;;18.90;64.70;;;;;;5073841;28;20450;-49
2022/02/09 02:12:34;;;;;;;20.67;19.87;;;18.90;65.00;;;;;;5073582;28;20932;-49
2022/02/09 02:15:24;;;;;;;19.80;19.00;;;18.90;65.00;;;;;;5073845;28;20467;-47
2022/02/09 02:17:51;;;;;;;20.50;19.60;;;18.90;65.10;;;;;;5073611;28;20443;-47
2022/02/09 02:20:31;;;;;;;19.80;19.00;;;18.90;65.40;;;;;;5073907;28;20505;-49
2022/02/09 02:23:22;;;;;;;20.20;19.40;;;18.80;65.50;;;;;;5073746;28;20483;-48
2022/02/09 02:26:02;;;;;;;20.30;19.50;;;18.80;65.60;;;;;;5073838;28;20824;-47
2022/02/09 02:28:45;;;;;;;20.30;19.50;;;18.80;65.80;;;;;;5073828;28;20447;-47
2022/02/09 02:34:24;;;;;;;20.17;19.27;;;18.70;66.00;;;;;;5053947;28;20439;-47
2022/02/09 02:40:07;;;;;;;20.23;19.43;;;18.70;66.20;;;;;;5036880;28;20459;-50
2022/02/09 02:57:06;;;;;;;19.77;19.07;;;18.70;66.40;;;;;;5036683;28;20846;-48
2022/02/09 02:59:45;;;;;;;20.00;19.20;;;18.70;66.50;;;;;;5073013;28;20448;-49
2022/02/09 03:10:59;;;;;;;20.97;20.07;;;18.60;67.30;;;;;;5071791;28;20510;-48
2022/02/09 03:13:30;;;;;;;20.67;19.80;;;18.60;67.30;;;;;;5072425;28;20493;-49
2022/02/09 03:16:01;;;;;;;20.47;19.67;;;18.70;67.30;;;;;;5072692;28;20509;-47
2022/02/09 03:18:49;;;;;;;20.50;19.70;;;18.60;67.20;;;;;;5072981;28;20448;-52
2022/02/09 03:21:30;;;;;;;20.77;19.97;;;18.70;67.30;;;;;;5073074;28;20885;-49
2022/02/09 03:24:02;;;;;;;20.40;19.60;;;18.60;67.40;;;;;;5065344;28;20473;-46
2022/02/09 03:26:50;;;;;;;20.10;19.30;;;18.60;67.60;;;;;;5072579;28;20521;-48
2022/02/09 03:43:18;;;;;;;20.47;19.57;;;18.50;67.90;;;;;;5072263;28;20528;-50
2022/02/09 03:46:12;;;;;;;20.00;19.20;;;18.50;68.00;;;;;;5072112;28;20464;-50
2022/02/09 03:48:52;;;;;;;20.20;19.40;;;18.50;68.20;;;;;;5072098;28;20786;-49
2022/02/09 03:51:40;;;;;;;20.60;19.80;;;18.50;68.30;;;;;;5072308;28;20443;-50
2022/02/09 03:54:15;;;;;;;21.40;20.50;;;18.50;68.40;;;;;;5071976;28;20491;-49
2022/02/09 03:56:55;;;;;;;20.27;19.40;;;18.50;68.50;;;;;;5072141;28;20820;-50
2022/02/09 03:59:22;;;;;;;20.93;20.03;;;18.40;68.60;;;;;;5071726;28;20549;-50
2022/02/09 04:01:51;;;;;;;20.27;19.47;;;18.40;68.80;;;;;;5072044;28;20443;-52
2022/02/09 04:04:18;;;;;;;20.93;20.13;;;18.40;69.20;;;;;;5071549;28;20451;-49
2022/02/09 04:06:48;;;;;;;20.80;20.00;;;18.40;69.30;;;;;;5071675;28;20825;-48
2022/02/09 04:09:17;;;;;;;20.43;19.63;;;18.40;69.60;;;;;;5071220;28;20805;-49
2022/02/09 04:11:48;;;;;;;20.50;19.70;;;18.40;70.00;;;;;;5072061;28;20825;-52
2022/02/09 04:14:24;;;;;;;20.60;19.80;;;18.40;70.00;;;;;;5071606;28;20451;-49
2022/02/09 04:17:02;;;;;;;20.60;19.70;;;18.40;70.10;;;;;;5071707;28;20831;-47
2022/02/09 04:19:37;;;;;;;21.27;20.37;;;18.40;70.50;;;;;;5071514;28;20483;-50
2022/02/09 04:38:53;;;;;;;20.30;19.50;;;18.40;72.10;;;;;;5070393;28;20497;-49
2022/02/09 04:44:17;;;;;;;20.97;20.07;;;18.30;73.10;;;;;;5051396;28;20977;-51
2022/02/09 04:50:00;;;;;;;20.00;19.20;;;18.20;74.10;;;;;;5067858;28;20784;-48
2022/02/09 04:55:31;;;;;;;20.40;19.50;;;18.20;75.10;;;;;;5037881;28;20447;-50
2022/02/09 04:58:03;;;;;;;20.10;19.30;;;18.20;75.40;;;;;;5071030;28;20462;-48
2022/02/09 05:00:38;;;;;;;20.27;19.47;;;18.20;75.20;;;;;;5067178;28;20497;-49
2022/02/09 05:28:08;;;;;;;21.17;20.20;;;18.10;78.50;;;;;;5074639;28;20524;-50
2022/02/09 05:30:35;;;;;;;20.67;19.77;;;18.00;78.40;;;;;;5075052;28;20550;-49
2022/02/09 05:33:02;;;;;;;20.60;19.70;;;18.00;79.00;;;;;;5074740;28;20440;-50
2022/02/09 05:35:29;;;;;;;20.60;19.70;;;18.00;78.90;;;;;;5074736;28;20469;-48
2022/02/09 05:37:57;;;;;;;21.17;20.27;;;18.00;79.50;;;;;;5074318;28;20439;-50
2022/02/09 05:40:25;;;;;;;20.73;19.83;;;18.00;79.60;;;;;;5075289;28;20794;-48
2022/02/09 05:42:51;;;;;;;20.97;20.03;;;18.10;80.20;;;;;;5074240;28;20483;-50
2022/02/09 05:45:21;;;;;;;22.97;21.47;;;18.10;80.50;;;;;;5073959;28;20987;-47
2022/02/09 05:48:39;;;;;;;22.60;21.10;;;18.10;85.10;;;;;;5074628;28;20447;-49
2022/02/09 05:51:01;;;;;;;22.57;21.07;;;18.10;93.50;;;;;;5074538;28;20467;-47
2022/02/09 05:53:40;;;;;;;22.10;20.90;;;18.60;97.20;;;;;;5074411;28;20447;-49
2022/02/09 05:56:19;;;;;;;22.80;21.37;;;19.10;95.00;;;;;;5074283;28;20991;-48
2022/02/09 05:58:49;;;;;;;23.43;21.63;;;19.50;93.20;;;;;;5074291;28;20454;-47
2022/02/09 06:01:16;;;;;;;23.73;21.83;;;19.80;92.00;;;;;;5074120;28;20451;-48
2022/02/09 06:03:43;;;;;;;26.33;24.07;;;19.90;92.10;;;;;;5074278;28;21018;-51
2022/02/09 06:06:10;;;;;;;25.53;23.63;;;20.00;91.90;;;;;;5075467;22;20496;-46
2022/02/09 06:08:39;;;;;;;25.20;23.60;;;20.10;94.70;;;;;;5073041;28;20485;-45
2022/02/09 06:11:22;;;;;;;23.87;22.27;;;20.30;95.20;;;;;;5055795;28;20462;-49
2022/02/09 06:14:20;;;;;;;24.10;22.50;;;20.40;95.50;;;;;;5066976;28;20475;-49
2022/02/09 06:19:49;;;;;;;23.60;21.80;;;20.50;93.50;;;;;;5090353;28;20437;-48
2022/02/09 06:22:16;;;;;;;25.97;23.80;;;20.50;93.10;;;;;;5088505;28;20959;-46
2022/02/09 06:24:44;;;;;;;23.03;21.53;;;20.60;92.10;;;;;;5074708;28;20450;-47
2022/02/09 06:27:12;;;;;;;24.23;22.63;;;20.60;91.40;;;;;;5074769;28;20832;-49
2022/02/09 06:29:44;;;;;;;23.00;21.43;;;20.70;90.20;;;;;;5074633;28;20447;-49
2022/02/09 06:32:11;;;;;;;23.83;22.17;;;20.70;88.70;;;;;;5074921;28;20479;-48
2022/02/09 06:34:39;;;;;;;24.50;22.80;;;20.70;87.30;;;;;;5076504;28;20447;-49
2022/02/09 06:37:14;;;;;;;23.13;21.83;;;20.70;85.90;;;;;;5074778;28;20495;-46
2022/02/09 06:39:44;;;;;;;22.40;21.20;;;20.70;84.30;;;;;;5075273;28;20443;-46
2022/02/09 06:42:15;;;;;;;24.00;22.60;;;20.70;83.50;;;;;;5075181;28;20458;-45
2022/02/09 06:44:42;;;;;;;23.17;21.87;;;20.70;82.20;;;;;;5074607;28;20538;-50
2022/02/09 06:47:08;;;;;;;23.97;22.57;;;20.70;81.20;;;;;;5074060;28;20467;-48
2022/02/09 06:49:37;;;;;;;23.17;21.90;;;20.70;79.70;;;;;;5074388;28;20884;-48
2022/02/09 06:52:04;;;;;;;23.20;21.97;;;20.70;78.80;;;;;;5074368;28;20832;-46
2022/02/09 06:54:34;;;;;;;23.97;22.50;;;20.70;77.80;;;;;;5074141;28;20443;-45
2022/02/09 06:57:07;;;;;;;23.33;22.13;;;20.70;77.10;;;;;;5073829;28;20467;-47
2022/02/09 06:59:41;;;;;;;21.97;20.93;;;20.70;76.60;;;;;;5074104;28;20509;-50
2022/02/09 07:02:09;;;;;;;23.80;22.60;;;20.70;75.90;;;;;;5074188;28;20447;-47
2022/02/09 07:04:37;;;;;;;33.03;31.33;;;20.70;75.00;;;;;;5073733;28;20486;-47
2022/02/09 07:07:04;;;;;;;28.10;26.70;;;20.70;74.80;;;;;;5073183;28;20824;-51
2022/02/09 07:09:31;;;;;;;30.83;29.13;;;20.70;74.30;;;;;;5073363;28;20443;-46
2022/02/09 07:11:59;;;;;;;31.80;30.20;;;20.70;74.10;;;;;;5073422;28;20447;-49
2022/02/09 07:14:27;;;;;;;30.40;28.97;;;20.70;73.60;;;;;;5073135;28;20847;-48
2022/02/09 07:16:57;;;;;;;30.17;28.77;;;20.70;73.00;;;;;;5072785;28;20478;-49
2022/02/09 07:19:26;;;;;;;31.47;29.97;;;20.70;73.20;;;;;;5073068;28;20501;-48
2022/02/09 07:21:53;;;;;;;29.53;28.17;;;20.60;72.20;;;;;;5072942;28;20452;-48
2022/02/09 07:24:21;;;;;;;28.83;27.43;;;20.60;72.00;;;;;;5072841;28;20574;-48
2022/02/09 07:27:00;;;;;;;29.23;27.63;;;20.60;71.50;;;;;;5072192;28;20467;-48
2022/02/09 07:29:27;;;;;;;32.10;30.60;;;20.60;71.10;;;;;;5072938;28;20447;-51
2022/02/09 07:31:55;;;;;;;28.50;27.17;;;20.60;70.80;;;;;;5072717;28;20466;-48
2022/02/09 07:34:22;;;;;;;28.20;27.00;;;20.60;70.60;;;;;;5072975;28;20439;-48
2022/02/09 07:36:49;;;;;;;28.13;26.83;;;20.60;70.30;;;;;;5072356;28;20463;-51
2022/02/09 07:39:15;;;;;;;31.73;30.23;;;20.50;70.10;;;;;;5072964;28;20443;-49
2022/02/09 07:41:45;;;;;;;28.37;26.97;;;20.50;69.70;;;;;;5072985;28;20440;-47
2022/02/09 07:44:31;;;;;;;28.60;27.30;;;20.50;69.30;;;;;;5072490;28;20511;-49
2022/02/09 07:47:21;;;;;;;27.87;26.50;;;20.50;69.00;;;;;;5072084;28;20517;-50
2022/02/09 07:50:03;;;;;;;27.50;26.30;;;20.50;68.70;;;;;;5072619;28;20451;-47
2022/02/09 07:52:38;;;;;;;29.20;27.80;;;20.40;68.10;;;;;;5072855;28;20880;-52
2022/02/09 07:55:06;;;;;;;31.33;30.03;;;20.40;67.90;;;;;;5072390;28;20965;-48
2022/02/09 07:57:33;;;;;;;26.87;25.70;;;20.40;67.70;;;;;;5072219;28;20440;-49
2022/02/09 08:00:00;;;;;;;28.20;26.70;;;20.40;67.30;;;;;;5072206;28;20936;-49
2022/02/09 08:02:29;;;;;;;26.60;25.40;;;20.30;67.10;;;;;;5072638;28;20542;-46
2022/02/09 08:04:56;;;;;;;29.20;27.80;;;20.30;67.00;;;;;;5072549;28;20483;-48
2022/02/09 08:07:23;;;;;;;27.27;25.97;;;20.30;67.00;;;;;;5072266;28;20460;-48
2022/02/09 08:09:50;;;;;;;27.33;26.20;;;20.30;66.80;;;;;;5072376;28;20959;-47
2022/02/09 08:12:37;;;;;;;28.77;27.47;;;20.30;66.80;;;;;;5072679;28;20538;-50
2022/02/09 08:21:55;;;;;;;27.47;26.17;;;20.30;65.90;;;;;;5046281;28;20904;-49
2022/02/09 08:26:44;;;;;;;30.23;28.93;;;20.20;65.70;;;;;;5061458;28;20495;-47
2022/02/09 08:29:19;;;;;;;31.43;30.03;;;20.10;65.60;;;;;;5072311;28;20534;-47
2022/02/09 08:34:41;;;;;;;27.27;26.07;;;20.10;66.60;;;;;;5071294;28;20461;-49
2022/02/09 08:37:09;;;;;;;28.60;27.40;;;19.90;65.70;;;;;;5071672;28;20476;-48
2022/02/09 08:39:36;;;;;;;29.70;28.30;;;19.90;66.20;;;;;;5071891;28;20462;-50
2022/02/09 08:42:04;;;;;;;28.27;26.97;;;19.90;66.20;;;;;;5072035;28;20448;-51
2022/02/09 08:44:32;;;;;;;28.10;26.80;;;20.00;66.00;;;;;;5072219;28;20483;-47
2022/02/09 08:46:58;;;;;;;29.03;27.73;;;20.10;65.90;;;;;;5071774;28;20464;-47
2022/02/09 08:49:26;;;;;;;26.93;25.63;;;20.20;65.40;;;;;;5072276;28;20928;-46
2022/02/09 08:51:56;;;;;;;28.00;26.70;;;20.30;65.10;;;;;;5072009;28;20444;-45
2022/02/09 08:54:22;;;;;;;28.30;26.80;;;20.30;64.40;;;;;;5072017;28;20440;-48
2022/02/09 08:56:49;;;;;;;29.27;27.77;;;20.40;64.10;;;;;;5071936;28;20463;-49
2022/02/09 08:59:22;;;;;;;25.93;24.73;;;20.40;63.70;;;;;;5072197;28;20455;-48
2022/02/09 09:01:54;;;;;;;25.33;24.23;;;20.40;63.50;;;;;;5072112;28;20456;-49
2022/02/09 09:04:25;;;;;;;25.43;24.33;;;20.40;63.00;;;;;;5072023;28;20502;-47
2022/02/09 09:06:55;;;;;;;27.83;26.63;;;20.50;62.90;;;;;;5071941;28;20480;-48
2022/02/09 10:04:41;;;;;;;30.90;29.50;;;20.30;59.60;;;;;;5061948;28;20525;-51
2022/02/09 10:32:51;;;;;;;27.40;26.27;;;20.30;59.10;;;;;;5075182;28;20450;-49
2022/02/09 10:35:27;;;;;;;27.50;26.27;;;20.30;59.10;;;;;;5074997;28;21090;-45
2022/02/09 10:37:57;;;;;;;31.27;29.97;;;20.20;58.90;;;;;;5074952;28;20479;-48
2022/02/09 10:40:29;;;;;;;30.20;28.90;;;20.20;59.10;;;;;;5075135;28;20447;-46
2022/02/09 10:43:00;;;;;;;28.27;26.97;;;20.20;59.20;;;;;;5074714;28;20447;-48
2022/02/09 10:45:32;;;;;;;27.37;26.27;;;20.20;59.20;;;;;;5074179;28;20475;-50
2022/02/09 10:48:00;;;;;;;30.90;29.40;;;20.20;59.20;;;;;;5074182;28;20447;-48
2022/02/09 10:50:29;;;;;;;29.33;28.10;;;20.20;59.20;;;;;;5074352;28;20439;-51
2022/02/09 10:52:59;;;;;;;31.93;30.63;;;20.20;59.20;;;;;;5074153;28;20466;-47
2022/02/09 10:55:38;;;;;;;27.50;26.30;;;20.20;59.20;;;;;;5074101;28;20478;-47
2022/02/09 10:58:07;;;;;;;25.40;24.30;;;20.20;59.10;;;;;;5074963;28;20508;-49
2022/02/09 11:00:34;;;;;;;25.57;24.47;;;20.30;59.10;;;;;;5074472;28;20447;-46
2022/02/09 11:03:03;;;;;;;25.40;24.30;;;20.30;59.00;;;;;;5073632;28;20543;-48
2022/02/09 11:05:29;;;;;;;30.63;29.43;;;20.30;58.80;;;;;;5073647;28;20806;-50
2022/02/09 11:07:56;;;;;;;27.63;26.43;;;20.30;58.80;;;;;;5074139;28;20439;-49
2022/02/09 11:10:24;;;;;;;26.00;24.90;;;20.30;58.60;;;;;;5074652;28;20443;-47
2022/02/09 11:12:53;;;;;;;25.10;24.00;;;20.40;58.70;;;;;;5074700;28;20443;-48
2022/02/09 11:15:22;;;;;;;26.80;25.70;;;20.40;58.50;;;;;;5073905;28;20520;-49
2022/02/09 11:17:50;;;;;;;25.17;24.17;;;20.40;58.50;;;;;;5074073;28;20454;-47
2022/02/09 11:20:24;;;;;;;25.80;24.70;;;20.40;58.40;;;;;;5074404;28;20439;-46
2022/02/09 11:22:52;;;;;;;27.57;26.47;;;20.40;58.30;;;;;;5074138;28;20467;-47
2022/02/09 11:25:27;;;;;;;26.70;25.50;;;20.40;58.20;;;;;;5073525;28;20856;-48
2022/02/09 11:28:17;;;;;;;28.10;26.90;;;20.40;58.20;;;;;;5073684;28;21010;-48
2022/02/09 11:31:00;;;;;;;29.57;28.27;;;20.40;58.10;;;;;;5073548;28;20539;-51
2022/02/09 11:33:36;;;;;;;28.20;27.00;;;20.50;58.00;;;;;;5073138;28;20538;-49
2022/02/09 11:36:21;;;;;;;25.80;24.60;;;20.50;58.00;;;;;;5072751;28;20491;-48
2022/02/09 11:38:52;;;;;;;26.37;25.17;;;20.50;57.90;;;;;;5074183;28;20436;-48
2022/02/09 11:41:23;;;;;;;23.87;22.87;;;20.50;57.90;;;;;;5073101;28;20447;-48
2022/02/09 11:44:02;;;;;;;25.60;24.50;;;20.40;57.80;;;;;;5073007;28;20553;-46
2022/02/09 11:52:39;;;;;;;25.90;24.77;;;20.40;57.70;;;;;;5073736;28;20438;-50
2022/02/09 11:56:01;;;;;;;29.70;28.40;;;20.30;57.70;;;;;;5073505;28;20439;-51
2022/02/09 12:01:19;;;;;;;27.80;26.60;;;20.30;57.70;;;;;;5073319;28;20423;-47
2022/02/09 12:10:20;;;;;;;26.57;25.47;;;20.40;57.30;;;;;;5066139;28;20884;-44
2022/02/09 12:12:56;;;;;;;28.10;26.90;;;20.50;57.10;;;;;;5034426;28;20440;-45
2022/02/09 12:15:51;;;;;;;26.40;25.30;;;20.50;57.00;;;;;;5073849;28;20928;-44
2022/02/09 12:18:27;;;;;;;27.50;26.30;;;20.50;57.10;;;;;;5074575;28;20859;-44
2022/02/09 12:20:59;;;;;;;29.97;28.77;;;20.50;57.40;;;;;;5080412;28;20474;-43
2022/02/09 12:23:39;;;;;;;31.17;29.87;;;20.40;57.80;;;;;;5088816;28;20450;-45
2022/02/09 12:26:14;;;;;;;29.47;28.27;;;20.30;58.40;;;;;;5091630;28;20851;-46
2022/02/09 12:28:45;;;;;;;27.83;26.30;;;20.20;59.30;;;;;;5091862;28;20533;-44
2022/02/09 12:31:14;;;;;;;30.47;29.27;;;20.20;60.40;;;;;;5091898;28;20442;-42
2022/02/09 12:33:43;;;;;;;30.37;29.07;;;20.20;60.10;;;;;;5080632;28;20440;-42
2022/02/09 12:36:13;;;;;;;40.10;38.50;;;20.20;60.30;;;;;;5071151;28;20470;-43
2022/02/09 12:38:41;;;;;;;34.23;32.83;;;20.20;60.70;;;;;;5071587;28;20432;-44
2022/02/09 12:41:10;;;;;;;27.20;26.10;;;20.20;61.00;;;;;;5071510;28;20857;-44
2022/02/09 12:43:46;;;;;;;27.10;26.00;;;20.20;61.20;;;;;;5081290;28;20504;-45
2022/02/09 12:46:14;;;;;;;26.80;25.67;;;20.30;61.40;;;;;;5091498;28;20961;-44
2022/02/09 12:48:41;;;;;;;28.10;26.90;;;20.30;61.00;;;;;;5089294;28;20947;-43
2022/02/09 12:51:08;;;;;;;28.40;27.20;;;20.30;61.30;;;;;;5091411;28;20445;-45
2022/02/09 12:53:37;;;;;;;28.90;27.70;;;20.40;61.50;;;;;;5051528;28;20969;-43
2022/02/09 12:56:17;;;;;;;29.17;27.97;;;20.40;61.70;;;;;;5050973;28;20869;-43
2022/02/09 12:58:58;;;;;;;27.27;26.17;;;20.50;61.80;;;;;;5060977;28;20434;-43
2022/02/09 13:01:25;;;;;;;27.43;26.23;;;20.50;61.70;;;;;;5091448;28;20445;-45
2022/02/09 13:03:52;;;;;;;27.37;26.17;;;20.40;61.40;;;;;;5091810;28;20434;-44
2022/02/09 13:06:18;;;;;;;26.93;25.83;;;20.40;61.30;;;;;;5091160;28;20482;-47
2022/02/09 13:08:52;;;;;;;27.20;26.07;;;20.40;60.90;;;;;;5091248;28;20446;-43
2022/02/09 13:11:23;;;;;;;28.13;26.93;;;20.40;60.80;;;;;;5091415;28;20446;-45
2022/02/09 13:13:55;;;;;;;25.57;24.43;;;20.50;60.70;;;;;;5091412;28;20443;-44
2022/02/09 13:16:41;;;;;;;26.30;25.20;;;20.50;60.70;;;;;;5091030;28;20463;-44
2022/02/09 13:19:24;;;;;;;25.77;24.77;;;20.50;60.50;;;;;;5091446;28;20529;-44
2022/02/09 13:25:25;;;;;;;25.70;24.60;;;20.40;59.70;;;;;;5090927;28;20466;-45
2022/02/09 14:12:35;;;;;;;32.57;31.27;;;21.00;57.30;;;;;;5094452;28;20414;-43
2022/02/09 14:49:02;;;;;;;26.13;25.03;;;20.70;57.10;;;;;;5093827;28;20460;-44
2022/02/09 14:51:38;;;;;;;30.50;29.10;;;20.70;57.10;;;;;;5093546;28;20857;-46
2022/02/09 14:54:15;;;;;;;30.43;29.20;;;20.90;57.00;;;;;;5093617;28;20443;-43
2022/02/09 14:56:55;;;;;;;27.40;26.30;;;20.90;56.70;;;;;;5093210;28;20558;-45
2022/02/09 14:59:33;;;;;;;26.53;25.43;;;21.00;56.50;;;;;;5093490;28;20451;-45
2022/02/09 15:02:05;;;;;;;27.10;26.00;;;21.00;56.30;;;;;;5093470;28;21110;-45
2022/02/09 15:04:39;;;;;;;32.73;31.43;;;21.10;56.20;;;;;;5093259;28;20479;-44
2022/02/09 15:07:24;;;;;;;31.67;30.47;;;21.10;56.00;;;;;;5093016;28;20481;-44
2022/02/09 15:09:56;;;;;;;31.80;30.50;;;21.10;55.90;;;;;;5093290;28;20454;-44
2022/02/09 15:12:28;;;;;;;33.23;31.93;;;21.00;55.90;;;;;;5093091;28;20453;-44
2022/02/09 15:18:13;;;;;;;32.60;31.30;;;21.00;55.90;;;;;;5090235;28;20457;-45
2022/02/09 15:20:48;;;;;;;30.90;29.70;;;20.90;55.90;;;;;;5093118;28;20865;-43
2022/02/09 15:23:18;;;;;;;28.90;27.70;;;20.90;55.90;;;;;;5093074;28;20800;-44
2022/02/09 15:25:46;;;;;;;31.20;30.00;;;20.90;55.90;;;;;;5092786;28;20486;-43
2022/02/09 15:28:13;;;;;;;31.63;30.33;;;20.90;56.10;;;;;;5092762;28;20450;-44
2022/02/09 15:30:47;;;;;;;30.80;29.53;;;20.90;56.10;;;;;;5092833;28;20457;-46
2022/02/09 15:33:20;;;;;;;32.33;31.10;;;20.80;56.10;;;;;;5092799;28;20446;-44
2022/02/09 15:35:52;;;;;;;29.87;28.63;;;20.80;56.00;;;;;;5092566;28;20462;-43
2022/02/09 15:38:23;;;;;;;30.90;29.70;;;20.80;56.10;;;;;;5092708;28;20764;-44
2022/02/09 15:41:00;;;;;;;30.70;29.50;;;20.80;56.10;;;;;;5092728;28;20451;-43
2022/02/09 15:44:00;;;;;;;30.90;29.70;;;20.80;56.10;;;;;;5092865;28;20482;-43
2022/02/09 15:57:59;;;;;;;34.00;32.67;;;20.60;56.50;;;;;;5092177;28;20460;-43
2022/02/09 16:06:01;;;;;;;30.03;28.87;;;20.60;56.90;;;;;;5092170;28;20485;-43
2022/02/09 16:08:55;;;;;;;30.63;29.43;;;20.60;56.90;;;;;;5092076;28;20481;-45
2022/02/09 16:11:36;;;;;;;31.50;30.20;;;20.60;56.80;;;;;;5091881;28;20434;-43
2022/02/09 16:17:27;;;;;;;28.23;27.10;;;20.60;56.80;;;;;;5090811;28;20461;-43
2022/02/09 16:22:34;;;;;;;26.97;25.87;;;20.60;56.80;;;;;;5089315;28;20434;-44
2022/02/09 16:33:22;;;;;;;26.53;25.43;;;20.50;56.90;;;;;;5091816;28;20419;-44
2022/02/09 16:39:05;;;;;;;26.27;25.17;;;20.50;57.00;;;;;;5091804;28;20506;-44
2022/02/09 16:44:22;;;;;;;28.53;27.33;;;20.50;57.10;;;;;;5092124;28;20804;-44
2022/02/09 16:46:56;;;;;;;26.80;25.70;;;20.40;57.00;;;;;;5091241;28;20557;-43
2022/02/09 16:49:30;;;;;;;26.20;25.10;;;20.40;57.10;;;;;;5091603;28;20485;-45
2022/02/09 16:52:02;;;;;;;27.50;26.40;;;20.40;57.10;;;;;;5091653;28;20504;-44
2022/02/09 16:54:37;;;;;;;24.90;23.90;;;20.40;57.10;;;;;;5091672;28;20449;-43
2022/02/09 17:08:20;;;;;;;24.10;23.20;;;20.30;57.10;;;;;;5091597;28;20458;-43
2022/02/09 17:08:37;;;;;;;21.00;20.10;;;20.20;57.40;;;;;;5095721;28;20784;-43
2022/02/09 17:19:25;;;;;;;21.63;20.53;;;20.10;57.40;;;;;;5069065;28;20434;-45
2022/02/09 17:21:52;;;;;;;21.97;20.97;;;20.10;57.50;;;;;;5095290;28;20457;-43
2022/02/09 17:24:19;;;;;;;21.77;20.77;;;20.10;57.60;;;;;;5095368;28;20871;-44
2022/02/09 17:26:45;;;;;;;21.73;20.77;;;20.10;57.60;;;;;;5093926;28;20478;-43
2022/02/09 17:29:18;;;;;;;20.70;19.80;;;20.10;57.70;;;;;;5089726;28;20443;-47
2022/02/09 17:31:53;;;;;;;21.20;20.30;;;20.00;58.20;;;;;;5093342;28;20506;-45
2022/02/09 17:37:11;;;;;;;21.10;20.20;;;19.70;60.90;;;;;;5094661;28;20438;-44
2022/02/09 17:53:38;;;;;;;21.00;20.10;;;19.70;66.20;;;;;;5058483;28;20423;-45
2022/02/09 17:56:09;;;;;;;21.20;20.10;;;19.80;66.40;;;;;;5075179;28;20494;-45
2022/02/09 17:58:41;;;;;;;21.00;20.10;;;19.90;66.10;;;;;;5074640;28;20470;-45
2022/02/09 18:01:08;;;;;;;21.10;20.00;;;19.90;65.70;;;;;;5074537;28;20446;-45
2022/02/09 18:03:36;;;;;;;21.50;20.50;;;19.90;65.80;;;;;;5074501;28;20447;-45
2022/02/09 18:06:16;;;;;;;21.60;20.60;;;20.00;65.80;;;;;;5092407;28;20493;-45
2022/02/09 18:08:51;;;;;;;21.77;20.77;;;20.00;65.70;;;;;;5094929;28;20446;-45
2022/02/09 18:11:30;;;;;;;21.30;20.37;;;20.00;65.70;;;;;;5094296;28;20454;-45
2022/02/09 18:28:15;;;;;;;20.87;19.87;;;20.10;65.90;;;;;;5094166;28;20500;-48
2022/02/09 18:30:46;;;;;;;20.90;19.90;;;20.10;65.80;;;;;;5085048;28;20463;-49
2022/02/09 18:33:35;;;;;;;21.10;20.10;;;20.10;65.90;;;;;;5069209;28;20448;-55
2022/02/09 18:39:26;;;;;;;20.93;20.03;;;20.10;66.30;;;;;;5062435;28;20474;-45
2022/02/09 18:44:40;;;;;;;20.80;19.90;;;19.90;66.90;;;;;;5041627;28;20429;-49
2022/02/09 18:47:38;;;;;;;21.30;20.40;;;19.80;67.80;;;;;;5061673;28;20491;-49
2022/02/09 18:59:22;;;;;;;21.47;20.53;;;19.50;71.00;;;;;;4983628;28;21389;-48
2022/02/09 19:01:57;;;;;;;21.00;19.90;;;19.40;71.80;;;;;;5041643;28;20443;-46
2022/02/09 19:04:27;;;;;;;20.57;19.67;;;19.40;72.70;;;;;;5061178;28;21022;-47
2022/02/09 19:07:16;;;;;;;20.80;19.90;;;19.40;73.00;;;;;;5080516;28;20493;-45
2022/02/09 19:15:38;;;;;;;20.40;19.50;;;19.30;73.90;;;;;;5068279;28;20439;-45
2022/02/09 19:18:16;;;;;;;20.80;19.90;;;19.30;74.30;;;;;;5069140;28;20636;-54
2022/02/09 19:20:57;;;;;;;20.40;19.50;;;19.40;74.50;;;;;;5081066;28;20482;-48
2022/02/09 19:26:21;;;;;;;20.30;19.40;;;19.30;74.80;;;;;;5080995;28;20513;-44
2022/02/09 19:29:18;;;;;;;21.13;20.13;;;19.30;76.30;;;;;;5067659;28;20459;-45
2022/02/09 19:31:48;;;;;;;21.27;20.37;;;19.30;75.80;;;;;;5061759;28;20527;-48
2022/02/09 19:45:53;;;;;;;21.20;20.30;;;19.20;76.40;;;;;;5037863;28;20531;-46
2022/02/09 19:48:24;;;;;;;20.77;19.77;;;19.20;76.70;;;;;;5065423;28;20451;-47
2022/02/09 19:51:06;;;;;;;20.87;19.93;;;19.20;77.30;;;;;;5061553;28;20906;-45
2022/02/09 19:53:41;;;;;;;21.33;20.33;;;19.10;77.90;;;;;;5062870;28;20482;-45
2022/02/09 19:56:11;;;;;;;21.63;20.70;;;19.10;78.30;;;;;;5062503;28;20708;-45
2022/02/09 19:58:42;;;;;;;21.20;20.20;;;19.10;78.40;;;;;;5076391;28;20454;-44
2022/02/09 20:01:13;;;;;;;21.10;20.20;;;19.10;79.40;;;;;;5078671;28;20454;-46
2022/02/09 20:03:42;;;;;;;21.03;20.10;;;19.10;78.80;;;;;;5072209;28;20899;-45
2022/02/09 20:06:09;;;;;;;21.30;20.40;;;19.10;78.50;;;;;;5071026;28;20510;-45
2022/02/09 20:08:37;;;;;;;20.83;19.93;;;19.10;78.70;;;;;;5065035;28;20858;-45
2022/02/09 20:11:05;;;;;;;21.17;20.27;;;19.10;78.50;;;;;;5076266;28;20525;-47
2022/02/09 20:13:32;;;;;;;21.13;20.23;;;19.10;78.30;;;;;;5060021;28;20451;-46
2022/02/09 20:15:59;;;;;;;21.07;20.07;;;19.10;78.30;;;;;;5072610;28;20820;-45
2022/02/09 20:18:26;;;;;;;20.80;19.90;;;19.20;79.00;;;;;;5080096;28;20809;-47
2022/02/09 20:20:56;;;;;;;22.23;21.13;;;19.50;79.60;;;;;;5080326;28;20450;-46
2022/02/09 20:23:23;;;;;;;20.83;19.83;;;19.80;77.80;;;;;;5080103;28;20930;-45
2022/02/09 20:25:51;;;;;;;21.00;20.10;;;20.00;76.20;;;;;;5077896;28;20486;-47
2022/02/09 20:28:18;;;;;;;21.03;20.13;;;20.40;75.30;;;;;;5067960;28;20881;-45
2022/02/09 20:30:50;;;;;;;20.93;19.93;;;20.80;73.90;;;;;;5071570;28;20458;-46
2022/02/09 20:33:21;;;;;;;21.20;20.30;;;21.10;71.80;;;;;;5065613;28;20483;-47
2022/02/09 20:35:48;;;;;;;21.93;20.93;;;21.30;70.60;;;;;;5059360;28;20485;-44
2022/02/09 20:38:19;;;;;;;21.90;20.90;;;21.50;68.30;;;;;;5059689;28;20451;-46
2022/02/09 20:40:50;;;;;;;21.20;20.20;;;21.50;67.20;;;;;;5060188;28;20447;-46
2022/02/09 20:43:19;;;;;;;21.73;20.83;;;21.60;66.30;;;;;;5067840;28;20455;-47
2022/02/09 20:45:49;;;;;;;21.43;20.53;;;21.60;65.40;;;;;;5059089;28;20495;-45
2022/02/09 20:48:25;;;;;;;21.43;20.43;;;21.80;65.50;;;;;;5059526;28;20502;-42
2022/02/09 20:50:54;;;;;;;20.80;19.90;;;21.90;64.90;;;;;;5059569;28;21000;-47
2022/02/09 20:53:23;;;;;;;21.50;20.60;;;21.90;64.10;;;;;;5069853;28;20457;-47
2022/02/09 20:55:51;;;;;;;21.90;20.90;;;22.00;63.30;;;;;;5079207;28;20470;-45
2022/02/09 20:58:19;;;;;;;21.40;20.40;;;21.90;62.90;;;;;;5077694;28;20537;-45
2022/02/09 21:00:53;;;;;;;22.07;21.07;;;22.00;62.60;;;;;;5080053;28;20917;-46
2022/02/09 21:03:37;;;;;;;21.30;20.40;;;22.00;62.80;;;;;;5078346;28;20877;-46
2022/02/09 21:06:12;;;;;;;21.57;20.57;;;22.00;61.70;;;;;;5059257;28;20508;-47
2022/02/09 21:08:59;;;;;;;21.63;20.63;;;22.00;61.40;;;;;;5059544;28;20825;-46
2022/02/09 21:11:39;;;;;;;21.17;20.27;;;22.00;62.00;;;;;;5059462;28;20923;-45
2022/02/09 21:14:16;;;;;;;20.97;20.07;;;22.00;61.20;;;;;;5066624;28;20536;-46
2022/02/09 21:16:57;;;;;;;21.20;20.30;;;22.00;60.90;;;;;;5078965;28;20841;-45